Terminal Aerodrome Forecast
Issued by NWS

Home | Current Version | Previous Version | Graphics & Text | Print | Product List | Glossary Off
Versions: 1 2 3 4 5 6 7 8 9 10 11 12 13 14 15

199
FTUS43 KOAX 251130
TAFCDR
TAF
KCDR 251130Z 2512/2612 25011KT P6SM SCT250
     FM251700 28015G25KT P6SM FEW250
     FM260100 23010KT P6SM FEW250=

USA.gov is the U.S. government's official web portal to all federal, state and local government web resources and services.